createdAt,value
2022-11-28T00:00:11.816Z,5.2
2022-11-28T00:03:13.557Z,5.2
2022-11-28T00:06:12.434Z,5.2
2022-11-28T00:09:11.713Z,5.2
2022-11-28T00:12:11.878Z,5.2
2022-11-28T00:15:11.735Z,5.2
2022-11-28T00:18:11.785Z,5.4
2022-11-28T00:21:11.722Z,5.4
2022-11-28T00:24:11.764Z,5.4
2022-11-28T00:27:11.757Z,5.4
2022-11-28T00:30:12.010Z,5.4
2022-11-28T00:33:11.792Z,5.4
2022-11-28T00:36:11.782Z,5.4
2022-11-28T00:39:11.665Z,5.4
2022-11-28T00:42:11.749Z,5.4
2022-11-28T00:45:11.744Z,5.4
2022-11-28T00:48:11.866Z,5.4
2022-11-28T00:51:11.718Z,5.4
2022-11-28T00:54:11.800Z,5.4
2022-11-28T00:57:11.810Z,5.4
2022-11-28T01:00:11.783Z,5.4
2022-11-28T01:03:11.687Z,5.4
2022-11-28T01:06:11.775Z,5.4
2022-11-28T01:09:12.122Z,5.5
2022-11-28T01:12:11.825Z,5.4
2022-11-28T01:15:11.757Z,5.4
2022-11-28T01:18:11.696Z,5.4
2022-11-28T01:21:11.836Z,5.4
2022-11-28T01:24:11.725Z,5.2
2022-11-28T01:27:11.705Z,5.2
2022-11-28T01:30:11.734Z,5.2
2022-11-28T01:33:11.750Z,5.1
2022-11-28T01:36:11.760Z,5.1
2022-11-28T01:39:11.769Z,5.1
2022-11-28T01:42:11.755Z,5.1
2022-11-28T01:45:11.783Z,5.1
2022-11-28T01:48:11.793Z,5
2022-11-28T01:51:11.739Z,5
2022-11-28T01:54:11.866Z,5.1
2022-11-28T01:57:11.766Z,5.1
2022-11-28T02:00:12.001Z,5.1
2022-11-28T02:03:11.778Z,5.1
2022-11-28T02:06:11.803Z,5.1
2022-11-28T02:09:11.803Z,5.1
2022-11-28T02:12:11.711Z,5.1
2022-11-28T02:15:11.841Z,5.1
2022-11-28T02:18:11.753Z,5.1
2022-11-28T02:21:11.866Z,5.1
2022-11-28T02:24:11.747Z,5.1
2022-11-28T02:27:11.820Z,5.1
2022-11-28T02:30:11.820Z,5.1
2022-11-28T02:33:11.713Z,5.1
2022-11-28T02:36:11.709Z,5.1
2022-11-28T02:39:11.789Z,5.1
2022-11-28T02:42:11.780Z,5.1
2022-11-28T02:45:11.854Z,5.1
2022-11-28T02:48:11.779Z,5.1
2022-11-28T02:51:11.742Z,5.1
2022-11-28T02:54:11.765Z,5.1
2022-11-28T02:57:11.900Z,5.1
2022-11-28T03:00:17.811Z,5
2022-11-28T03:03:11.767Z,5
2022-11-28T03:06:11.810Z,5
2022-11-28T03:09:11.768Z,5
2022-11-28T03:12:11.842Z,5.1
2022-11-28T03:15:11.959Z,5
2022-11-28T03:18:11.708Z,5.1
2022-11-28T03:21:11.712Z,5
2022-11-28T03:24:11.757Z,5
2022-11-28T03:27:11.761Z,5
2022-11-28T03:30:11.876Z,5
2022-11-28T03:33:11.821Z,5
2022-11-28T03:36:11.743Z,5
2022-11-28T03:39:11.757Z,4.9
2022-11-28T03:42:11.751Z,4.9
2022-11-28T03:45:11.797Z,4.9
2022-11-28T03:48:11.719Z,4.7
2022-11-28T03:51:11.815Z,4.7
2022-11-28T03:54:11.677Z,4.7
2022-11-28T03:57:11.832Z,4.7
2022-11-28T04:00:11.850Z,4.6
2022-11-28T04:03:12.307Z,4.6
2022-11-28T04:06:11.717Z,4.7
2022-11-28T04:09:18.780Z,4.7
2022-11-28T04:12:11.754Z,4.7
2022-11-28T04:15:11.728Z,4.6
2022-11-28T04:18:11.737Z,4.6
2022-11-28T04:21:11.748Z,4.6
2022-11-28T04:24:11.742Z,4.6
2022-11-28T04:27:11.756Z,4.6
2022-11-28T04:30:11.794Z,4.6
2022-11-28T04:33:11.802Z,4.5
2022-11-28T04:36:11.748Z,4.5
2022-11-28T04:39:11.828Z,4.5
2022-11-28T04:42:11.749Z,4.4
2022-11-28T04:45:11.811Z,4.4
2022-11-28T04:48:11.692Z,4.4
2022-11-28T04:51:11.786Z,4.4
2022-11-28T04:54:11.829Z,4.5
2022-11-28T04:57:11.762Z,4.5
2022-11-28T05:00:11.869Z,4.5
2022-11-28T05:03:11.733Z,4.5
2022-11-28T05:06:11.795Z,4.5
2022-11-28T05:09:11.717Z,4.5
2022-11-28T05:12:11.821Z,4.5
2022-11-28T05:15:11.752Z,4.5
2022-11-28T05:18:11.828Z,4.5
2022-11-28T05:21:11.783Z,4.5
2022-11-28T05:24:11.774Z,4.5
2022-11-28T05:27:11.791Z,4.6
2022-11-28T05:30:11.706Z,4.6
2022-11-28T05:33:11.770Z,4.6
2022-11-28T05:36:17.952Z,4.6
2022-11-28T05:39:11.876Z,4.6
2022-11-28T05:42:11.841Z,4.6
2022-11-28T05:45:12.268Z,4.7
2022-11-28T05:48:11.757Z,4.7
2022-11-28T05:51:11.756Z,4.7
2022-11-28T05:54:11.729Z,4.7
2022-11-28T05:57:11.740Z,4.7
2022-11-28T06:00:11.961Z,4.9
2022-11-28T06:03:13.026Z,4.9
2022-11-28T06:06:11.795Z,4.9
2022-11-28T06:09:11.755Z,4.9
2022-11-28T06:12:12.417Z,4.9
2022-11-28T06:18:11.857Z,4.9
2022-11-28T06:21:11.775Z,4.9
2022-11-28T06:24:11.784Z,4.9
2022-11-28T06:27:11.764Z,4.9
2022-11-28T06:30:11.774Z,4.9
2022-11-28T06:33:11.808Z,4.7
2022-11-28T06:36:11.896Z,4.9
2022-11-28T06:39:11.750Z,4.7
2022-11-28T06:42:11.769Z,4.7
2022-11-28T06:45:11.844Z,4.9
2022-11-28T06:48:11.746Z,4.9
2022-11-28T06:51:11.947Z,4.9
2022-11-28T06:54:11.758Z,4.9
2022-11-28T06:57:11.675Z,4.9
2022-11-28T07:00:11.855Z,5
2022-11-28T07:03:11.835Z,5
2022-11-28T07:06:11.858Z,5.1
2022-11-28T07:09:11.754Z,5.1
2022-11-28T07:12:11.802Z,5.2
2022-11-28T07:15:11.795Z,5.2
2022-11-28T07:18:11.788Z,5.4
2022-11-28T07:21:11.853Z,5.5
2022-11-28T07:24:11.964Z,5.6
2022-11-28T07:27:11.836Z,5.6
2022-11-28T07:30:11.792Z,5.7
2022-11-28T07:33:11.780Z,5.7
2022-11-28T07:36:11.743Z,5.7
2022-11-28T07:39:11.786Z,5.7
2022-11-28T07:42:11.833Z,5.6
2022-11-28T07:45:11.796Z,5.7
2022-11-28T07:48:11.856Z,5.6
2022-11-28T07:51:11.919Z,5.7
2022-11-28T07:54:11.819Z,5.7
2022-11-28T07:57:24.741Z,5.7
2022-11-28T08:00:12.146Z,5.7
2022-11-28T08:03:11.974Z,5.7
2022-11-28T08:06:14.445Z,5.9
2022-11-28T08:09:11.790Z,5.9
2022-11-28T08:12:11.866Z,6
2022-11-28T08:15:11.806Z,6
2022-11-28T08:18:11.911Z,6.1
2022-11-28T08:21:11.799Z,6.2
2022-11-28T08:24:11.861Z,6.4
2022-11-28T08:27:11.860Z,6.5
2022-11-28T08:30:12.036Z,6.5
2022-11-28T08:33:12.052Z,6.6
2022-11-28T08:36:11.997Z,6.7
2022-11-28T08:39:35.480Z,6.9
2022-11-28T08:42:11.920Z,7
2022-11-28T08:45:11.825Z,7.1
2022-11-28T08:48:11.950Z,7.2
2022-11-28T08:51:11.902Z,7.2
2022-11-28T08:54:12.147Z,7.2
2022-11-28T08:57:11.926Z,7.4
2022-11-28T09:00:12.036Z,7.4
2022-11-28T09:03:11.977Z,7.4
2022-11-28T09:06:12.259Z,7.4
2022-11-28T09:09:11.921Z,7.4
2022-11-28T09:12:11.872Z,7.4
2022-11-28T09:15:12.009Z,7.4
2022-11-28T09:18:11.883Z,7.4
2022-11-28T09:21:12.015Z,7.4
2022-11-28T09:24:11.878Z,7.4
2022-11-28T09:27:11.895Z,7.4
2022-11-28T09:30:11.922Z,7.4
2022-11-28T09:33:11.861Z,7.4
2022-11-28T09:36:12.009Z,7.5
2022-11-28T09:39:11.850Z,7.5
2022-11-28T09:42:11.850Z,7.6
2022-11-28T09:45:11.873Z,7.7
2022-11-28T09:48:11.873Z,7.7
2022-11-28T09:51:12.611Z,7.9
2022-11-28T09:54:11.905Z,7.9
2022-11-28T09:57:11.856Z,8
2022-11-28T10:00:12.107Z,8
2022-11-28T10:03:12.345Z,8.1
2022-11-28T10:06:11.966Z,8.3
2022-11-28T10:09:11.820Z,8.4
2022-11-28T10:12:11.814Z,8.5
2022-11-28T10:15:11.823Z,8.6
2022-11-28T10:18:11.928Z,8.8
2022-11-28T10:21:11.782Z,9
2022-11-28T10:24:11.924Z,9.1
2022-11-28T10:27:11.900Z,9.3
2022-11-28T10:30:11.849Z,9.4
2022-11-28T10:33:11.884Z,9.5
2022-11-28T10:36:11.856Z,9.5
2022-11-28T10:39:17.898Z,9.6
2022-11-28T10:42:11.964Z,9.8
2022-11-28T10:45:11.867Z,9.9
2022-11-28T10:48:50.119Z,9.9
2022-11-28T10:51:11.788Z,10
2022-11-28T10:54:11.833Z,10
2022-11-28T10:57:11.867Z,10
2022-11-28T11:00:12.017Z,10
2022-11-28T11:03:11.888Z,9.9
2022-11-28T11:06:11.896Z,9.8
2022-11-28T11:09:11.871Z,9.8
2022-11-28T11:12:11.912Z,9.6
2022-11-28T11:15:11.951Z,9.6
2022-11-28T11:18:11.837Z,9.8
2022-11-28T11:21:11.866Z,9.9
2022-11-28T11:24:11.803Z,10
2022-11-28T11:27:11.832Z,10
2022-11-28T11:30:11.987Z,10
2022-11-28T11:33:11.832Z,10
2022-11-28T11:36:11.833Z,9.9
2022-11-28T11:39:11.892Z,9.8
2022-11-28T11:42:12.054Z,9.6
2022-11-28T11:45:11.833Z,9.8
2022-11-28T11:48:11.875Z,9.8
2022-11-28T11:51:11.789Z,9.8
2022-11-28T11:54:11.862Z,9.8
2022-11-28T11:57:45.209Z,9.9
2022-11-28T12:00:12.060Z,9.9
2022-11-28T12:03:12.978Z,9.9
2022-11-28T12:06:26.283Z,9.9
2022-11-28T12:09:11.927Z,10
2022-11-28T12:12:11.851Z,10
2022-11-28T12:15:11.841Z,10
2022-11-28T12:18:11.959Z,10.1
2022-11-28T12:21:12.140Z,10.1
2022-11-28T12:24:11.964Z,10
2022-11-28T12:27:11.859Z,10
2022-11-28T12:30:11.966Z,10
2022-11-28T12:33:11.895Z,9.9
2022-11-28T12:36:14.616Z,9.9
2022-11-28T12:39:11.920Z,9.8
2022-11-28T12:42:11.885Z,9.8
2022-11-28T12:45:11.998Z,9.6
2022-11-28T12:48:12.032Z,9.6
2022-11-28T12:51:12.169Z,9.6
2022-11-28T12:54:12.051Z,9.6
2022-11-28T12:57:12.013Z,9.6
2022-11-28T13:00:23.839Z,9.6
2022-11-28T13:03:12.599Z,9.5
2022-11-28T13:06:12.185Z,9.5
2022-11-28T13:09:12.001Z,9.4
2022-11-28T13:12:11.952Z,9.4
2022-11-28T13:15:11.962Z,9.3
2022-11-28T13:18:11.910Z,9.3
2022-11-28T13:21:11.835Z,9.1
2022-11-28T13:24:18.652Z,9
2022-11-28T13:27:12.021Z,9
2022-11-28T13:30:12.071Z,8.9
2022-11-28T13:33:11.870Z,8.9
2022-11-28T13:38:34.713Z,8.8
2022-11-28T13:39:25.651Z,8.6
2022-11-28T13:48:11.906Z,8.4
2022-11-28T13:51:32.882Z,8.3
2022-11-28T13:54:15.300Z,8.3
2022-11-28T13:57:12.013Z,8.1
2022-11-28T14:00:12.068Z,8
2022-11-28T14:03:12.784Z,7.9
2022-11-28T14:06:11.889Z,7.7
2022-11-28T14:09:11.977Z,7.7
2022-11-28T14:12:12.300Z,7.6
2022-11-28T14:15:15.144Z,7.5
2022-11-28T14:21:11.860Z,7.4
2022-11-28T14:24:11.886Z,7.4
2022-11-28T14:27:11.826Z,7.2
2022-11-28T14:30:11.950Z,7.2
2022-11-28T14:33:11.940Z,7.1
2022-11-28T14:36:11.805Z,7
2022-11-28T14:39:11.976Z,7
2022-11-28T14:42:21.274Z,6.9
2022-11-28T14:45:22.219Z,6.7
2022-11-28T14:48:11.954Z,6.6
2022-11-28T14:51:13.680Z,6.5
2022-11-28T14:54:11.895Z,6.5
2022-11-28T14:57:11.949Z,6.4
2022-11-28T15:00:11.944Z,6.2
2022-11-28T15:03:12.401Z,6.2
2022-11-28T15:06:11.821Z,6
2022-11-28T15:09:11.872Z,6
2022-11-28T15:12:11.874Z,5.9
2022-11-28T15:15:11.793Z,5.7
2022-11-28T15:18:11.849Z,5.6
2022-11-28T15:21:11.717Z,5.5
2022-11-28T15:24:11.775Z,5.4
2022-11-28T15:27:11.756Z,5.2
2022-11-28T15:30:11.859Z,5.2
2022-11-28T15:33:11.785Z,5.1
2022-11-28T15:36:11.736Z,5
2022-11-28T15:39:11.863Z,5
2022-11-28T15:42:11.738Z,4.9
2022-11-28T15:45:11.775Z,4.7
2022-11-28T15:48:11.790Z,4.7
2022-11-28T15:51:11.727Z,4.7
2022-11-28T15:54:17.305Z,4.7
2022-11-28T15:57:11.780Z,4.6
2022-11-28T16:00:12.011Z,4.6
2022-11-28T16:03:11.758Z,4.6
2022-11-28T16:06:11.735Z,4.6
2022-11-28T16:09:11.831Z,4.5
2022-11-28T16:12:11.739Z,4.6
2022-11-28T16:15:11.743Z,4.5
2022-11-28T16:18:11.736Z,4.5
2022-11-28T16:21:11.749Z,4.5
2022-11-28T16:24:11.725Z,4.5
2022-11-28T16:27:11.770Z,4.4
2022-11-28T16:30:11.872Z,4.4
2022-11-28T16:33:11.747Z,4.4
2022-11-28T16:36:11.753Z,4.4
2022-11-28T16:39:11.754Z,4.2
2022-11-28T16:42:11.774Z,4.2
2022-11-28T16:45:11.866Z,4.2
2022-11-28T16:48:11.894Z,4.1
2022-11-28T16:51:11.808Z,4.1
2022-11-28T16:54:11.970Z,4.1
2022-11-28T16:57:11.749Z,4.1
2022-11-28T17:00:11.838Z,4.1
2022-11-28T17:03:17.412Z,4.1
2022-11-28T17:06:11.793Z,4
2022-11-28T17:09:11.827Z,4
2022-11-28T17:12:11.751Z,4
2022-11-28T17:15:11.724Z,4
2022-11-28T17:18:11.789Z,3.9
2022-11-28T17:21:11.761Z,3.9
2022-11-28T17:24:11.730Z,4
2022-11-28T17:27:11.835Z,4
2022-11-28T17:30:11.771Z,4
2022-11-28T17:33:11.771Z,4
2022-11-28T17:36:11.772Z,4
2022-11-28T17:39:16.498Z,4
2022-11-28T17:42:11.733Z,4
2022-11-28T17:45:11.846Z,4
2022-11-28T17:48:11.747Z,4
2022-11-28T17:51:11.865Z,3.9
2022-11-28T17:54:11.855Z,4
2022-11-28T17:57:11.785Z,4
2022-11-28T18:00:11.941Z,4
2022-11-28T18:03:11.741Z,4
2022-11-28T18:06:12.307Z,4
2022-11-28T18:09:19.004Z,4
2022-11-28T18:12:11.761Z,4
2022-11-28T18:15:11.752Z,4
2022-11-28T18:18:11.671Z,4
2022-11-28T18:21:11.745Z,4
2022-11-28T18:24:11.787Z,4
2022-11-28T18:27:11.794Z,4
2022-11-28T18:30:11.821Z,4.1
2022-11-28T18:33:11.825Z,4.2
2022-11-28T18:36:11.770Z,4.4
2022-11-28T18:39:11.731Z,4.5
2022-11-28T18:42:11.808Z,4.5
2022-11-28T18:45:11.733Z,4.6
2022-11-28T18:48:11.950Z,4.7
2022-11-28T18:51:11.719Z,4.9
2022-11-28T18:54:14.023Z,4.9
2022-11-28T18:57:11.766Z,5
2022-11-28T19:00:12.422Z,5
2022-11-28T19:03:11.884Z,5
2022-11-28T19:06:11.792Z,5.1
2022-11-28T19:09:11.749Z,5.1
2022-11-28T19:12:11.897Z,5.2
2022-11-28T19:15:13.939Z,5.2
2022-11-28T19:18:11.866Z,5.2
2022-11-28T19:21:11.779Z,5.4
2022-11-28T19:24:11.733Z,5.4
2022-11-28T19:27:19.186Z,5.4
2022-11-28T19:30:11.794Z,5.4
2022-11-28T19:33:11.779Z,5.4
2022-11-28T19:36:11.845Z,5.5
2022-11-28T19:39:11.705Z,5.5
2022-11-28T19:42:11.775Z,5.5
2022-11-28T19:45:11.804Z,5.4
2022-11-28T19:48:11.741Z,5.5
2022-11-28T19:51:11.723Z,5.5
2022-11-28T19:54:15.818Z,5.5
2022-11-28T19:57:11.683Z,5.5
2022-11-28T20:00:11.720Z,5.5
2022-11-28T20:03:11.744Z,5.5
2022-11-28T20:06:11.819Z,5.5
2022-11-28T20:09:11.792Z,5.5
2022-11-28T20:12:11.756Z,5.4
2022-11-28T20:15:18.421Z,5.2
2022-11-28T20:18:11.750Z,5.1
2022-11-28T20:21:11.795Z,5
2022-11-28T20:24:11.879Z,5
2022-11-28T20:27:11.741Z,5
2022-11-28T20:30:11.864Z,5
2022-11-28T20:33:11.719Z,5
2022-11-28T20:36:11.821Z,5.1
2022-11-28T20:39:11.748Z,5.1
2022-11-28T20:42:11.732Z,5.1
2022-11-28T20:45:11.783Z,5.1
2022-11-28T20:48:11.744Z,5.2
2022-11-28T20:51:11.736Z,5.2
2022-11-28T20:54:11.764Z,5.2
2022-11-28T20:57:33.751Z,5.2
2022-11-28T21:00:11.833Z,5.2
2022-11-28T21:03:11.726Z,5.2
2022-11-28T21:06:12.823Z,5.2
2022-11-28T21:09:11.786Z,5.2
2022-11-28T21:12:13.570Z,5.2
2022-11-28T21:15:11.759Z,5.2
2022-11-28T21:18:11.755Z,5.2
2022-11-28T21:21:11.737Z,5.2
2022-11-28T21:24:11.780Z,5.2
2022-11-28T21:27:11.769Z,5.2
2022-11-28T21:30:11.799Z,5.2
2022-11-28T21:33:11.798Z,5.2
2022-11-28T21:36:11.712Z,5.2
2022-11-28T21:39:11.776Z,5.2
2022-11-28T21:42:13.923Z,5.2
2022-11-28T21:45:11.776Z,5.2
2022-11-28T21:48:11.849Z,5.2
2022-11-28T21:51:11.868Z,5.2
2022-11-28T21:54:11.803Z,5.2
2022-11-28T21:57:11.783Z,5.2
2022-11-28T22:00:45.870Z,5.2
2022-11-28T22:03:23.560Z,5.2
2022-11-28T22:06:11.784Z,5.2
2022-11-28T22:09:20.644Z,5.2
2022-11-28T22:12:11.822Z,5.2
2022-11-28T22:15:11.843Z,5.2
2022-11-28T22:18:11.764Z,5.4
2022-11-28T22:24:12.855Z,5.2
2022-11-28T22:27:11.980Z,5.2
2022-11-28T22:30:11.785Z,5.2
2022-11-28T22:33:11.777Z,5.2
2022-11-28T22:36:11.768Z,5.2
2022-11-28T22:39:11.766Z,5.4
2022-11-28T22:42:11.773Z,5.4
2022-11-28T22:45:11.754Z,5.4
2022-11-28T22:48:11.802Z,5.4
2022-11-28T22:51:11.749Z,5.4
2022-11-28T22:54:11.901Z,5.4
2022-11-28T22:57:11.812Z,5.4
2022-11-28T23:00:13.092Z,5.4
2022-11-28T23:03:12.763Z,5.4
2022-11-28T23:06:11.933Z,5.4
2022-11-28T23:09:11.835Z,5.4
2022-11-28T23:12:11.761Z,5.4
2022-11-28T23:15:11.769Z,5.2
2022-11-28T23:18:11.773Z,5.2
2022-11-28T23:21:11.801Z,5.2
2022-11-28T23:24:11.836Z,5.2
2022-11-28T23:27:11.742Z,5.2
2022-11-28T23:30:11.770Z,5.4
2022-11-28T23:33:11.729Z,5.2
2022-11-28T23:36:11.715Z,5.4
2022-11-28T23:39:11.716Z,5.4
2022-11-28T23:42:11.771Z,5.4
2022-11-28T23:45:11.774Z,5.4
2022-11-28T23:48:11.722Z,5.4
2022-11-28T23:51:11.705Z,5.4
2022-11-28T23:54:11.774Z,5.4
2022-11-28T23:57:11.773Z,5.4
